Time;durP1;ratioP1;P1;durP2;ratioP2;P2;SDS_P1;SDS_P2;PMS_P1;PMS_P2;Temp;Humidity;BMP_temperature;BMP_pressure;BME280_temperature;BME280_humidity;BME280_pressure;Samples;Min_cycle;Max_cycle;Signal;HPM_P1;HPM_P2
2021/10/09 00:00:58;;;;;;;33.35;10.93;;;;;;;3.18;61.95;101206.02;1779491;80;20968;-84
2021/10/09 00:03:24;;;;;;;24.65;10.15;;;;;;;3.17;61.99;101205.72;1780404;80;21100;-82
2021/10/09 00:05:51;;;;;;;22.90;9.65;;;;;;;3.17;62.09;101209.78;1780973;80;21447;-82
2021/10/09 00:08:18;;;;;;;26.50;10.00;;;;;;;3.18;62.01;101206.02;1782162;79;21074;-82
2021/10/09 00:10:46;;;;;;;20.90;8.60;;;;;;;3.19;62.10;101202.25;1776924;80;22148;-82
2021/10/09 00:13:13;;;;;;;22.17;9.35;;;;;;;3.19;62.02;101199.53;1781026;79;21399;-83
2021/10/09 00:15:40;;;;;;;22.50;9.25;;;;;;;3.20;62.12;101201.72;1779321;80;21487;-83
2021/10/09 00:18:06;;;;;;;23.32;9.23;;;;;;;3.19;62.03;101195.98;1780249;80;20939;-84
2021/10/09 00:20:34;;;;;;;24.30;9.25;;;;;;;3.20;62.12;101201.72;1777395;80;20876;-79
2021/10/09 00:23:00;;;;;;;22.90;8.70;;;;;;;3.17;62.03;101197.57;1777032;80;20877;-88
2021/10/09 00:25:27;;;;;;;29.18;9.13;;;;;;;3.17;61.98;101198.93;1777116;80;20889;-81
2021/10/09 00:27:53;;;;;;;19.42;7.72;;;;;;;3.15;61.82;101198.33;1776906;80;21420;-76
2021/10/09 00:30:20;;;;;;;16.70;7.95;;;;;;;3.15;61.80;101198.33;1776878;80;20929;-86
2021/10/09 00:32:47;;;;;;;20.10;8.15;;;;;;;3.14;61.78;101193.95;1777047;79;20912;-84
2021/10/09 00:35:14;;;;;;;21.12;7.90;;;;;;;3.13;61.77;101193.66;1777350;80;20912;-83
2021/10/09 00:37:40;;;;;;;23.15;7.67;;;;;;;3.10;61.86;101194.63;1778112;79;20872;-81
2021/10/09 00:40:09;;;;;;;16.55;7.10;;;;;;;3.07;61.84;101190.48;1777226;80;21141;-82
2021/10/09 00:42:35;;;;;;;22.98;8.30;;;;;;;3.08;62.06;101188.61;1776970;79;21061;-78
2021/10/09 00:45:06;;;;;;;19.05;8.10;;;;;;;3.06;62.10;101194.26;1777180;80;21423;-79
2021/10/09 00:47:32;;;;;;;18.55;7.00;;;;;;;3.06;62.07;101190.19;1777022;79;20884;-76
2021/10/09 00:49:59;;;;;;;13.83;6.92;;;;;;;3.07;62.07;101189.13;1777183;80;20936;-82
2021/10/09 00:52:25;;;;;;;17.40;6.87;;;;;;;3.04;62.28;101182.80;1776907;80;23309;-85
2021/10/09 00:54:52;;;;;;;15.93;6.58;;;;;;;2.99;62.39;101182.64;1776890;80;21416;-85
2021/10/09 00:57:20;;;;;;;20.75;6.97;;;;;;;2.94;62.40;101184.68;1770203;80;20884;-84
2021/10/09 00:59:48;;;;;;;16.25;6.90;;;;;;;2.87;62.66;101181.77;1770678;80;20928;-85
2021/10/09 01:02:15;;;;;;;15.45;6.33;;;;;;;2.79;62.84;101173.92;1777064;80;20872;-84
2021/10/09 01:04:42;;;;;;;14.05;6.60;;;;;;;2.70;62.98;101170.67;1770507;80;21068;-85
2021/10/09 01:07:08;;;;;;;19.35;7.08;;;;;;;2.66;63.10;101174.89;1776912;80;20912;-84
2021/10/09 01:09:36;;;;;;;18.75;6.90;;;;;;;2.60;63.40;101173.07;1776996;80;21031;-84
2021/10/09 01:12:05;;;;;;;15.70;7.58;;;;;;;2.53;63.43;101163.64;1777024;79;20875;-85
2021/10/09 01:14:34;;;;;;;16.40;6.62;;;;;;;2.54;63.52;101171.25;1776938;79;21412;-85
2021/10/09 01:17:00;;;;;;;17.25;7.12;;;;;;;2.50;63.76;101170.04;1777030;80;21150;-84
2021/10/09 01:19:28;;;;;;;23.20;7.25;;;;;;;2.47;63.96;101166.42;1776857;79;21486;-87
2021/10/09 01:21:55;;;;;;;17.70;6.70;;;;;;;2.39;64.24;101173.48;1776906;80;20917;-86
2021/10/09 01:24:23;;;;;;;18.85;6.62;;;;;;;2.33;64.46;101167.06;1776983;80;21954;-86
2021/10/09 01:26:50;;;;;;;16.00;7.25;;;;;;;2.28;64.62;101158.80;1776908;80;20951;-86
2021/10/09 01:29:19;;;;;;;14.28;6.75;;;;;;;2.24;64.89;101165.72;1777564;79;21179;-86
2021/10/09 01:31:47;;;;;;;14.80;6.95;;;;;;;2.21;64.94;101159.37;1777039;79;20908;-86
2021/10/09 01:34:23;;;;;;;22.27;6.67;;;;;;;2.16;65.21;101160.57;1777082;79;20904;-86
2021/10/09 01:36:51;;;;;;;14.68;6.65;;;;;;;2.12;65.43;101158.83;1777358;79;20920;-85
2021/10/09 01:39:18;;;;;;;14.47;7.05;;;;;;;2.08;65.80;101155.42;1768059;79;20995;-83
2021/10/09 01:41:49;;;;;;;15.43;6.08;;;;;;;2.07;65.93;101153.77;1730248;81;21210;-83
2021/10/09 01:44:18;;;;;;;21.10;7.70;;;;;;;2.05;66.05;101155.86;1753534;81;20979;-82
2021/10/09 01:46:46;;;;;;;17.80;7.47;;;;;;;2.04;66.20;101165.04;1775827;80;20955;-83
2021/10/09 01:49:13;;;;;;;15.03;6.97;;;;;;;2.01;66.21;101158.19;1784691;80;20986;-84
2021/10/09 01:51:39;;;;;;;12.80;6.60;;;;;;;1.99;66.31;101150.80;1749667;82;21042;-84
2021/10/09 01:54:08;;;;;;;19.00;7.15;;;;;;;1.97;66.51;101157.80;1737170;82;21089;-83
2021/10/09 01:56:35;;;;;;;17.95;7.42;;;;;;;1.95;66.62;101158.54;1749520;82;20908;-84
2021/10/09 01:59:02;;;;;;;17.12;7.47;;;;;;;1.94;66.83;101156.88;1784415;80;21451;-81
2021/10/09 02:01:33;;;;;;;20.25;7.40;;;;;;;1.92;66.76;101160.33;1783097;80;20931;-84
2021/10/09 02:04:01;;;;;;;20.95;7.87;;;;;;;1.90;67.00;101161.08;1784634;80;21430;-84
2021/10/09 02:06:28;;;;;;;17.52;7.00;;;;;;;1.86;67.05;101159.85;1750289;82;21100;-81
2021/10/09 02:08:54;;;;;;;18.15;7.28;;;;;;;1.85;67.17;101156.84;1741844;80;20995;-81
2021/10/09 02:11:24;;;;;;;16.97;7.33;;;;;;;1.83;67.43;101155.40;1720319;83;20900;-84
2021/10/09 02:14:02;;;;;;;18.48;7.72;;;;;;;1.79;67.42;101153.66;1753318;81;20931;-85
2021/10/09 02:26:50;;;;;;;21.55;7.50;;;;;;;1.78;67.57;101159.28;1730668;83;20939;-85
2021/10/09 02:29:18;;;;;;;17.70;7.25;;;;;;;1.79;67.57;101163.13;1730620;83;21062;-87
2021/10/09 02:31:44;;;;;;;20.97;6.80;;;;;;;1.78;67.54;101160.11;1730873;83;21188;-87
2021/10/09 02:34:14;;;;;;;22.80;7.72;;;;;;;1.77;67.55;101163.04;1730724;83;20907;-88
2021/10/09 02:36:40;;;;;;;15.50;7.17;;;;;;;1.73;67.63;101159.97;1730687;83;21039;-87
2021/10/09 02:39:08;;;;;;;14.70;7.12;;;;;;;1.73;67.58;101159.14;1730635;83;21004;-87
2021/10/09 02:41:35;;;;;;;15.28;7.12;;;;;;;1.73;67.61;101153.73;1730770;83;20892;-87
2021/10/09 02:44:05;;;;;;;18.62;7.35;;;;;;;1.72;67.70;101156.95;1730851;83;21224;-83
2021/10/09 02:46:32;;;;;;;16.07;6.55;;;;;;;1.71;67.72;101155.83;1730921;83;20892;-83
2021/10/09 02:49:00;;;;;;;14.98;6.53;;;;;;;1.66;67.70;101155.13;1730862;83;21518;-83
2021/10/09 02:51:26;;;;;;;17.05;7.40;;;;;;;1.63;67.80;101152.85;1730977;83;21597;-86
2021/10/09 02:53:53;;;;;;;20.90;7.47;;;;;;;1.62;67.88;101157.95;1730844;83;20923;-86
2021/10/09 02:56:20;;;;;;;21.90;6.75;;;;;;;1.57;67.96;101156.42;1730845;83;21145;-85
2021/10/09 02:58:47;;;;;;;22.87;6.65;;;;;;;1.51;68.19;101158.13;1730905;83;20963;-84
2021/10/09 03:01:16;;;;;;;19.15;7.03;;;;;;;1.49;68.85;101160.22;1730731;83;20956;-84
2021/10/09 03:03:43;;;;;;;19.40;7.55;;;;;;;1.44;68.74;101159.20;1730722;83;21020;-84
2021/10/09 03:06:10;;;;;;;14.73;7.75;;;;;;;1.38;68.81;101160.07;1730835;83;20939;-85
2021/10/09 03:08:37;;;;;;;23.20;8.80;;;;;;;1.32;68.95;101163.95;1730982;81;21959;-82
2021/10/09 03:11:04;;;;;;;26.07;10.20;;;;;;;1.31;69.07;101165.52;1730973;83;21454;-84
2021/10/09 03:13:31;;;;;;;22.67;8.20;;;;;;;1.30;69.21;101164.68;1731098;82;20903;-82
2021/10/09 03:15:58;;;;;;;23.18;9.23;;;;;;;1.29;69.28;101165.73;1730992;83;21462;-82
2021/10/09 03:18:25;;;;;;;17.62;7.97;;;;;;;1.26;69.35;101171.56;1752947;81;20880;-81
2021/10/09 03:20:53;;;;;;;24.80;8.60;;;;;;;1.21;69.44;101171.38;1753418;81;21207;-80
2021/10/09 03:23:19;;;;;;;19.25;8.25;;;;;;;1.15;69.49;101171.44;1720139;83;20971;-82
2021/10/09 03:25:46;;;;;;;19.42;8.28;;;;;;;1.11;69.67;101175.09;1753392;81;21030;-82
2021/10/09 03:28:14;;;;;;;21.75;8.88;;;;;;;1.09;69.97;101173.65;1720017;83;20901;-84
2021/10/09 03:30:40;;;;;;;24.95;7.87;;;;;;;1.03;70.08;101169.92;1720308;83;20936;-85
2021/10/09 03:33:07;;;;;;;19.90;8.28;;;;;;;0.97;70.42;101171.60;1753832;81;21115;-87
2021/10/09 03:35:35;;;;;;;18.87;8.05;;;;;;;0.90;70.63;101174.84;1721138;83;21101;-85
2021/10/09 03:38:03;;;;;;;19.15;7.08;;;;;;;0.85;70.92;101171.95;1753492;81;20919;-72
2021/10/09 03:40:32;;;;;;;14.65;7.85;;;;;;;0.81;71.12;101170.71;1719768;83;20900;-72
2021/10/09 03:43:13;;;;;;;22.37;8.43;;;;;;;0.78;71.47;101168.95;1719979;82;21466;-71
2021/10/09 03:45:43;;;;;;;17.15;7.53;;;;;;;0.74;71.55;101167.72;1718856;82;21154;-71
2021/10/09 03:48:36;;;;;;;15.65;7.12;;;;;;;0.71;71.65;101171.67;1752450;81;21588;-71
2021/10/09 03:53:01;;;;;;;14.25;6.15;;;;;;;0.64;72.14;101163.58;1758327;79;20927;-71
2021/10/09 03:55:28;;;;;;;14.65;6.30;;;;;;;0.64;72.37;101166.28;1784519;80;21051;-72
2021/10/09 03:57:55;;;;;;;17.23;7.42;;;;;;;0.60;72.42;101163.69;1757411;80;21136;-71
2021/10/09 04:00:22;;;;;;;17.35;6.40;;;;;;;0.56;72.40;101166.53;1765489;80;20884;-71
2021/10/09 04:02:52;;;;;;;16.62;5.92;;;;;;;0.55;72.85;101166.22;1782903;80;20930;-70
2021/10/09 04:05:18;;;;;;;13.83;6.40;;;;;;;0.53;73.00;101171.53;1749504;82;20915;-71
2021/10/09 04:07:45;;;;;;;17.60;7.22;;;;;;;0.49;73.12;101168.94;1749403;80;20916;-71
2021/10/09 04:10:14;;;;;;;16.20;6.55;;;;;;;0.45;73.11;101163.12;1749364;82;21120;-71
2021/10/09 04:12:40;;;;;;;14.90;7.12;;;;;;;0.45;73.29;101165.82;1784106;80;20939;-71
2021/10/09 04:15:09;;;;;;;14.55;6.80;;;;;;;0.45;73.40;101169.88;1749891;82;21073;-71
2021/10/09 04:17:37;;;;;;;17.10;7.10;;;;;;;0.46;73.52;101165.30;1749561;81;20967;-71
2021/10/09 04:20:06;;;;;;;14.33;6.53;;;;;;;0.46;73.52;101170.19;1749640;82;21534;-71
2021/10/09 04:22:35;;;;;;;18.92;7.95;;;;;;;0.49;73.63;101177.88;1749236;80;21176;-71
2021/10/09 04:25:06;;;;;;;15.40;7.78;;;;;;;0.49;73.68;101178.39;1779696;80;20900;-69
2021/10/09 04:27:33;;;;;;;23.60;7.83;;;;;;;0.50;73.73;101170.08;1781866;80;21478;-71
2021/10/09 04:30:03;;;;;;;20.35;8.00;;;;;;;0.55;73.82;101181.09;1784034;80;20919;-71
2021/10/09 04:32:31;;;;;;;22.37;9.03;;;;;;;0.59;73.72;101181.47;1783781;80;20884;-70
2021/10/09 04:34:58;;;;;;;21.85;8.93;;;;;;;0.61;73.77;101186.14;1783839;80;23277;-71
2021/10/09 04:37:25;;;;;;;28.92;9.40;;;;;;;0.64;73.67;101179.80;1783739;80;20939;-70
2021/10/09 04:39:53;;;;;;;28.02;9.83;;;;;;;0.72;73.43;101184.66;1783706;80;20972;-71
2021/10/09 04:42:20;;;;;;;28.85;10.13;;;;;;;0.78;73.35;101181.12;1783861;80;20940;-73
2021/10/09 04:44:48;;;;;;;20.10;9.00;;;;;;;0.84;73.07;101187.86;1783952;80;21529;-72
2021/10/09 04:47:15;;;;;;;24.07;8.85;;;;;;;0.89;73.03;101191.28;1783867;80;21222;-72
2021/10/09 04:49:42;;;;;;;22.02;9.10;;;;;;;0.92;72.85;101194.92;1783788;80;20948;-73
2021/10/09 04:52:09;;;;;;;21.65;8.35;;;;;;;0.92;72.75;101191.69;1784028;80;21055;-72
2021/10/09 04:54:38;;;;;;;20.40;8.40;;;;;;;0.95;72.70;101190.44;1759932;80;20940;-72
2021/10/09 04:57:05;;;;;;;25.25;8.25;;;;;;;0.97;72.60;101199.17;1783573;80;20986;-72
2021/10/09 04:59:34;;;;;;;23.67;8.05;;;;;;;0.98;72.53;101190.02;1783788;80;21210;-72
2021/10/09 05:02:00;;;;;;;24.77;8.65;;;;;;;0.98;72.41;101190.84;1783412;80;20946;-72
2021/10/09 05:04:28;;;;;;;23.95;9.08;;;;;;;1.02;72.44;101193.95;1783475;80;20864;-73
2021/10/09 05:06:56;;;;;;;19.05;8.35;;;;;;;1.04;72.27;101195.92;1783454;80;20997;-73
2021/10/09 05:09:23;;;;;;;20.35;7.50;;;;;;;1.07;72.18;101196.02;1783758;80;20864;-70
2021/10/09 05:11:50;;;;;;;17.65;7.33;;;;;;;1.10;72.07;101195.59;1783619;80;21143;-70
2021/10/09 05:14:17;;;;;;;17.98;7.65;;;;;;;1.10;72.00;101195.59;1783768;80;21042;-70
2021/10/09 05:16:43;;;;;;;19.12;7.62;;;;;;;1.10;72.03;101203.19;1783705;80;20911;-70
2021/10/09 05:19:10;;;;;;;20.23;8.38;;;;;;;1.11;71.99;101197.25;1790082;80;20955;-71
2021/10/09 05:21:37;;;;;;;15.83;7.70;;;;;;;1.12;71.95;101203.80;1789776;80;21451;-71
2021/10/09 05:24:07;;;;;;;20.35;8.13;;;;;;;1.14;71.86;101196.30;1789910;80;22021;-72
2021/10/09 05:26:37;;;;;;;20.43;8.33;;;;;;;1.19;71.72;101193.77;1789740;80;20809;-71
2021/10/09 05:29:02;;;;;;;20.02;7.67;;;;;;;1.26;71.62;101202.69;1789752;80;20919;-72
2021/10/09 05:31:32;;;;;;;30.97;8.80;;;;;;;1.34;71.41;101204.31;1789837;80;20899;-72
2021/10/09 05:34:01;;;;;;;20.97;7.63;;;;;;;1.41;71.17;101207.83;1790027;80;20875;-73
2021/10/09 05:36:30;;;;;;;26.45;9.88;;;;;;;1.48;71.00;101207.80;1789865;80;21222;-71
2021/10/09 05:38:58;;;;;;;23.92;8.38;;;;;;;1.57;70.57;101201.09;1789745;80;20903;-73
2021/10/09 05:41:26;;;;;;;23.12;8.45;;;;;;;1.65;70.13;101198.96;1789963;80;21395;-77
2021/10/09 05:43:54;;;;;;;23.50;7.20;;;;;;;1.72;70.01;101199.45;1788373;80;20887;-73
2021/10/09 05:46:23;;;;;;;28.77;8.48;;;;;;;1.79;69.89;101194.80;1789065;80;20880;-70
2021/10/09 05:48:52;;;;;;;25.85;9.10;;;;;;;1.88;69.71;101188.90;1789875;80;21129;-78
2021/10/09 05:51:28;;;;;;;20.90;7.95;;;;;;;1.99;69.29;101197.68;1789821;80;20848;-76
2021/10/09 05:56:46;;;;;;;26.65;8.28;;;;;;;2.32;68.86;101190.63;1789877;80;20955;-72
2021/10/09 07:01:26;;;;;;;19.60;6.92;;;;;;;10.04;46.24;101220.73;1782848;80;21483;-70
2021/10/09 07:03:54;;;;;;;19.30;6.30;;;;;;;10.58;44.20;101212.27;1783210;80;21038;-68
2021/10/09 07:06:22;;;;;;;24.98;5.67;;;;;;;10.87;43.71;101206.20;1783073;80;21003;-69
2021/10/09 07:08:50;;;;;;;15.88;4.95;;;;;;;11.17;42.23;101207.48;1781934;80;21877;-68
2021/10/09 07:11:35;;;;;;;18.60;4.62;;;;;;;11.39;39.41;101211.27;1783980;80;20876;-68
2021/10/09 07:14:05;;;;;;;18.85;5.00;;;;;;;11.46;39.01;101209.59;1782498;80;21008;-70
2021/10/09 07:16:32;;;;;;;23.85;5.10;;;;;;;11.45;38.85;101203.82;1783227;80;20975;-68
2021/10/09 07:19:01;;;;;;;16.00;4.33;;;;;;;11.65;38.90;101207.83;1709617;82;20942;-70
2021/10/09 07:21:31;;;;;;;20.37;4.15;;;;;;;11.87;37.90;101200.59;1753225;81;21177;-68
2021/10/09 07:23:57;;;;;;;12.88;3.92;;;;;;;11.95;34.71;101206.05;1752939;81;21490;-69
2021/10/09 07:26:25;;;;;;;19.23;4.45;;;;;;;11.84;35.65;101197.03;1753225;81;21031;-68
2021/10/09 07:28:52;;;;;;;9.25;3.67;;;;;;;11.86;36.47;101206.65;1753197;81;21026;-69
2021/10/09 07:31:19;;;;;;;15.53;4.03;;;;;;;12.04;35.42;101205.17;1752703;81;21040;-70
2021/10/09 07:33:47;;;;;;;14.40;4.03;;;;;;;12.06;33.72;101202.13;1753305;80;21023;-70
2021/10/09 07:36:16;;;;;;;17.50;4.17;;;;;;;12.05;35.18;101210.13;1753050;81;21007;-68
2021/10/09 07:38:44;;;;;;;16.93;3.83;;;;;;;12.23;36.09;101201.98;1717810;81;20916;-69
2021/10/09 07:41:12;;;;;;;15.30;3.25;;;;;;;12.52;33.25;101202.03;1753210;80;21006;-69
2021/10/09 07:43:40;;;;;;;21.40;3.85;;;;;;;12.50;33.37;101206.19;1752905;80;21031;-69
2021/10/09 07:46:07;;;;;;;15.35;3.33;;;;;;;12.17;32.59;101204.50;1752669;81;21164;-69
2021/10/09 07:48:36;;;;;;;24.50;3.98;;;;;;;11.65;32.71;101202.87;1752488;81;21075;-68
2021/10/09 07:51:05;;;;;;;17.37;3.80;;;;;;;11.09;34.30;101201.73;1752658;81;20983;-69
2021/10/09 07:53:32;;;;;;;13.53;3.52;;;;;;;10.56;34.43;101204.86;1753154;81;21530;-69
2021/10/09 07:55:59;;;;;;;13.05;4.35;;;;;;;10.12;35.08;101212.79;1753322;81;21523;-68
2021/10/09 07:58:25;;;;;;;14.87;3.60;;;;;;;9.84;35.83;101207.78;1753255;81;21184;-69
2021/10/09 08:00:52;;;;;;;18.77;5.20;;;;;;;9.84;36.56;101210.53;1753414;81;20936;-69
2021/10/09 08:03:23;;;;;;;86.22;36.77;;;;;;;10.15;35.65;101206.75;1753518;81;20967;-68
2021/10/09 08:05:49;;;;;;;21.02;7.42;;;;;;;10.65;35.74;101197.44;1752550;81;21490;-69
2021/10/09 08:08:15;;;;;;;13.15;4.50;;;;;;;11.25;33.69;101196.47;1753153;81;21472;-70
2021/10/09 08:10:43;;;;;;;13.08;3.50;;;;;;;11.63;33.15;101201.78;1753442;81;21139;-68
2021/10/09 08:13:09;;;;;;;31.02;3.98;;;;;;;11.98;32.43;101204.11;1760665;80;21037;-69
2021/10/09 08:15:36;;;;;;;17.67;4.45;;;;;;;12.29;30.90;101200.56;1766388;81;20988;-68
2021/10/09 08:18:03;;;;;;;16.27;7.10;;;;;;;12.64;31.50;101200.28;1768623;80;21023;-68
2021/10/09 08:20:29;;;;;;;20.62;5.10;;;;;;;13.07;30.24;101199.83;1778601;80;21090;-69
2021/10/09 08:23:00;;;;;;;16.82;4.40;;;;;;;13.38;30.95;101199.48;1778467;80;21145;-68
2021/10/09 08:35:26;;;;;;;14.85;3.45;;;;;;;13.97;27.05;101200.33;1782775;80;20983;-68
2021/10/09 08:36:03;;;;;;;8.65;2.77;;;;;;;13.93;28.17;101203.98;1744803;82;21149;-66
2021/10/09 08:41:06;;;;;;;15.10;4.83;;;;;;;13.92;27.70;101210.06;1745851;82;21055;-68
2021/10/09 08:43:36;;;;;;;43.00;13.28;;;;;;;13.69;26.83;101193.84;1759200;80;21480;-69
2021/10/09 08:46:03;;;;;;;495.00;180.55;;;;;;;13.42;27.20;101198.60;1783358;80;21546;-68
2021/10/09 08:48:39;;;;;;;88.37;33.98;;;;;;;13.28;26.36;101202.39;1783629;80;21050;-68
2021/10/09 08:50:58;;;;;;;15.60;5.00;;;;;;;13.09;27.17;101194.84;1780922;80;20907;-69
2021/10/09 08:53:40;;;;;;;16.73;6.33;;;;;;;12.81;27.58;101202.02;1782601;80;20908;-69
2021/10/09 08:56:06;;;;;;;7.42;3.12;;;;;;;12.54;27.53;101204.50;1782381;80;21477;-69
2021/10/09 08:58:42;;;;;;;13.55;4.85;;;;;;;12.34;27.16;101204.11;1782850;80;20927;-69
2021/10/09 09:01:24;;;;;;;36.83;12.80;;;;;;;12.43;27.81;101192.74;1782581;80;21193;-69
2021/10/09 09:09:19;;;;;;;12.43;2.08;;;;;;;12.84;27.31;101212.45;1783021;80;21012;-69
2021/10/09 09:26:24;;;;;;;11.25;1.92;;;;;;;13.99;24.41;101196.71;1749568;81;21672;-66
2021/10/09 09:39:12;;;;;;;14.33;2.70;;;;;;;14.45;25.69;101185.77;1746214;81;21519;-70
2021/10/09 09:41:25;;;;;;;9.43;2.90;;;;;;;14.69;25.54;101178.73;1743836;81;21847;-69
2021/10/09 09:43:54;;;;;;;14.53;2.87;;;;;;;15.03;24.82;101169.23;1744969;81;20994;-70
2021/10/09 09:46:23;;;;;;;9.43;2.62;;;;;;;15.26;25.17;101176.52;1745725;81;20936;-69
2021/10/09 09:48:51;;;;;;;12.35;3.08;;;;;;;15.50;24.79;101174.92;1751873;80;21571;-69
2021/10/09 09:51:21;;;;;;;13.08;3.42;;;;;;;15.59;24.67;101168.13;1754978;81;21089;-70
2021/10/09 09:53:49;;;;;;;11.88;3.45;;;;;;;15.75;23.65;101172.17;1742704;81;21052;-68
2021/10/09 09:56:16;;;;;;;8.48;2.52;;;;;;;15.91;24.71;101175.42;1759803;81;20965;-69
2021/10/09 09:58:47;;;;;;;8.43;2.50;;;;;;;15.82;22.40;101168.41;1752727;80;21564;-70
2021/10/09 10:01:14;;;;;;;5.78;2.58;;;;;;;15.61;24.24;101172.77;1744793;81;20979;-68
2021/10/09 10:03:48;;;;;;;9.28;3.00;;;;;;;15.65;23.31;101170.45;1743827;81;21115;-68
2021/10/09 10:06:15;;;;;;;9.80;2.92;;;;;;;15.73;24.18;101169.72;1742378;81;21124;-68
2021/10/09 10:08:43;;;;;;;10.60;3.00;;;;;;;15.96;24.50;101168.38;1745781;81;21158;-70
2021/10/09 10:11:11;;;;;;;14.47;3.62;;;;;;;16.13;24.58;101167.14;1751889;79;20990;-67
2021/10/09 10:13:39;;;;;;;20.30;9.05;;;;;;;16.26;23.03;101162.66;1736169;81;21033;-68
2021/10/09 10:16:08;;;;;;;53.05;20.50;;;;;;;16.16;22.15;101162.36;1729534;81;21057;-68
2021/10/09 10:18:49;;;;;;;661.00;307.48;;;;;;;15.99;22.95;101163.03;1705154;80;21135;-68
2021/10/09 10:21:18;;;;;;;107.72;65.12;;;;;;;15.91;24.17;101166.55;1764646;81;20967;-68
2021/10/09 10:23:46;;;;;;;61.30;39.88;;;;;;;16.12;24.59;101159.40;1764632;80;21539;-67
2021/10/09 10:26:27;;;;;;;183.07;126.20;;;;;;;16.32;24.37;101161.39;1764604;81;21574;-68
2021/10/09 10:29:00;;;;;;;77.08;52.85;;;;;;;16.28;24.37;101154.28;1764640;81;21086;-68
2021/10/09 10:31:29;;;;;;;60.63;37.55;;;;;;;16.29;23.99;101159.25;1764754;81;21421;-68
2021/10/09 10:34:25;;;;;;;6.20;2.77;;;;;;;16.29;23.31;101164.80;1764547;81;21488;-68
2021/10/09 10:36:52;;;;;;;15.50;7.80;;;;;;;16.16;21.58;101156.82;1783404;80;21000;-68
2021/10/09 10:39:26;;;;;;;17.25;6.97;;;;;;;15.86;23.62;101150.05;1748598;82;21082;-67
2021/10/09 10:42:03;;;;;;;19.05;4.83;;;;;;;15.90;23.30;101151.63;1745155;81;21042;-68
2021/10/09 10:51:01;;;;;;;898.67;497.48;;;;;;;16.06;23.05;101141.83;1780260;80;21055;-68
2021/10/09 10:53:59;;;;;;;128.47;62.63;;;;;;;16.26;23.12;101137.72;1777523;80;21487;-70
2021/10/09 10:56:22;;;;;;;65.70;34.50;;;;;;;16.55;24.13;101142.23;1770916;80;20992;-68
2021/10/09 10:58:48;;;;;;;9.63;4.35;;;;;;;16.88;21.90;101144.12;1776007;79;21134;-69
2021/10/09 11:01:24;;;;;;;8.60;4.62;;;;;;;16.73;21.23;101145.39;1791093;79;21024;-69
2021/10/09 11:03:54;;;;;;;8.88;4.03;;;;;;;16.35;22.03;101143.56;1776258;80;20974;-69
2021/10/09 11:06:26;;;;;;;9.63;2.77;;;;;;;16.30;22.94;101142.88;1748514;80;21565;-68
2021/10/09 11:08:56;;;;;;;7.15;1.90;;;;;;;16.31;21.81;101136.20;1774495;80;21403;-70
2021/10/09 11:11:45;;;;;;;5.67;2.40;;;;;;;16.19;22.53;101129.84;1783097;80;21839;-68
2021/10/09 11:14:22;;;;;;;8.23;5.55;;;;;;;16.13;23.07;101140.83;1782814;80;21045;-69
2021/10/09 11:16:51;;;;;;;319.75;194.85;;;;;;;16.19;22.39;101143.69;1783233;80;21039;-69
2021/10/09 11:19:18;;;;;;;14.78;9.68;;;;;;;16.23;23.15;101125.88;1753591;80;21541;-70
2021/10/09 11:21:54;;;;;;;8.63;3.67;;;;;;;16.46;23.10;101127.50;1783558;80;21050;-69
2021/10/09 11:24:21;;;;;;;36.60;22.73;;;;;;;16.51;21.27;101127.37;1783749;80;21013;-68
2021/10/09 11:26:53;;;;;;;27.35;16.00;;;;;;;16.56;22.83;101124.46;1751126;80;20971;-69
2021/10/09 11:29:21;;;;;;;13.03;6.90;;;;;;;16.90;22.10;101117.45;1780946;79;21490;-70
2021/10/09 11:31:55;;;;;;;18.90;6.87;;;;;;;17.23;22.43;101126.23;1774718;80;21529;-67
2021/10/09 11:34:21;;;;;;;11.68;2.60;;;;;;;17.53;22.27;101121.70;1771376;80;20997;-69
2021/10/09 11:36:47;;;;;;;8.70;2.15;;;;;;;17.87;20.42;101118.17;1753639;81;21202;-70
2021/10/09 11:39:19;;;;;;;6.37;2.20;;;;;;;17.93;20.62;101114.87;1753498;81;21551;-70
2021/10/09 11:41:45;;;;;;;9.08;3.77;;;;;;;17.86;20.04;101117.93;1753048;81;20884;-69
2021/10/09 11:44:22;;;;;;;13.85;5.67;;;;;;;17.77;21.42;101109.59;1694547;81;20995;-70
2021/10/09 11:55:26;;;;;;;6.47;2.70;;;;;;;18.29;20.72;101096.45;1775223;80;22278;-69
2021/10/09 11:57:52;;;;;;;5.33;2.30;;;;;;;18.67;20.12;101095.70;1758372;80;21039;-69
2021/10/09 12:00:34;;;;;;;6.42;2.60;;;;;;;18.74;20.23;101089.05;1758745;80;21086;-70
2021/10/09 12:03:04;;;;;;;9.15;2.62;;;;;;;18.65;19.77;101091.87;1738642;82;21222;-69
2021/10/09 12:05:50;;;;;;;7.28;2.45;;;;;;;18.67;20.09;101085.40;1701448;82;21596;-68
2021/10/09 12:09:00;;;;;;;4.67;2.20;;;;;;;18.84;20.12;101091.47;1722530;82;21153;-69
2021/10/09 12:11:22;;;;;;;5.20;2.17;;;;;;;18.91;19.01;101080.64;1729440;82;21102;-69
2021/10/09 12:14:04;;;;;;;17.35;8.13;;;;;;;18.74;19.34;101084.31;1737738;82;21090;-70
2021/10/09 12:16:38;;;;;;;9.10;3.02;;;;;;;18.47;18.14;101091.67;1721704;83;21172;-67
2021/10/09 12:19:17;;;;;;;6.08;3.50;;;;;;;18.19;20.48;101087.07;1784523;79;20896;-68
2021/10/09 12:22:03;;;;;;;5.12;3.10;;;;;;;18.26;18.30;101083.79;1756991;80;21046;-68
2021/10/09 12:24:51;;;;;;;6.25;3.17;;;;;;;18.10;20.39;101075.15;1784843;80;21051;-69
2021/10/09 12:27:22;;;;;;;8.03;3.22;;;;;;;18.18;20.24;101088.22;1778650;80;21026;-70
2021/10/09 12:30:03;;;;;;;8.78;3.52;;;;;;;18.48;19.97;101078.80;1786145;79;21081;-69
2021/10/09 12:32:48;;;;;;;14.00;4.17;;;;;;;18.65;18.96;101077.96;1781163;80;21041;-69
2021/10/09 12:35:23;;;;;;;10.75;4.53;;;;;;;18.64;20.00;101079.69;1782306;80;21510;-68
2021/10/09 12:38:00;;;;;;;28.00;16.82;;;;;;;18.68;19.17;101080.65;1787166;79;21541;-68
2021/10/09 12:40:39;;;;;;;29.32;17.27;;;;;;;18.78;19.36;101080.28;1791045;79;21004;-68
2021/10/09 12:43:12;;;;;;;98.70;52.65;;;;;;;18.90;18.62;101072.62;1792951;80;21215;-69
2021/10/09 12:45:39;;;;;;;16.60;8.50;;;;;;;18.91;19.35;101070.90;1792968;80;21606;-69
2021/10/09 12:48:06;;;;;;;9.78;4.97;;;;;;;19.12;19.31;101071.73;1793386;79;20970;-71
2021/10/09 12:50:38;;;;;;;24.90;12.85;;;;;;;19.25;18.92;101069.05;1791279;79;21491;-70
2021/10/09 12:53:05;;;;;;;123.05;62.45;;;;;;;19.22;19.10;101069.72;1797820;79;20963;-69
2021/10/09 12:55:33;;;;;;;142.40;72.20;;;;;;;19.32;18.53;101079.08;1791989;79;21084;-71
2021/10/09 12:58:05;;;;;;;211.70;96.35;;;;;;;19.31;18.42;101076.87;1789539;80;21040;-69
2021/10/09 13:00:32;;;;;;;96.02;42.20;;;;;;;19.31;18.56;101068.52;1789596;80;21577;-68
2021/10/09 13:02:59;;;;;;;41.42;18.45;;;;;;;19.22;18.05;101070.54;1789079;80;21011;-70
2021/10/09 13:05:31;;;;;;;46.53;22.22;;;;;;;18.96;17.45;101066.53;1776357;80;20982;-80
2021/10/09 13:07:59;;;;;;;16.75;8.15;;;;;;;18.70;18.54;101067.23;1764921;80;21526;-79
2021/10/09 13:10:27;;;;;;;114.42;59.98;;;;;;;18.37;18.52;101058.66;1791456;79;20919;-79
2021/10/09 13:12:55;;;;;;;45.55;21.37;;;;;;;18.16;19.06;101073.83;1797069;79;21560;-79
2021/10/09 13:15:22;;;;;;;58.98;26.25;;;;;;;18.05;18.16;101073.36;1789503;80;20974;-83
2021/10/09 13:17:51;;;;;;;29.55;14.70;;;;;;;17.77;18.19;101076.27;1789648;80;21024;-83
2021/10/09 13:20:25;;;;;;;24.92;10.75;;;;;;;17.49;18.78;101064.05;1781299;80;21801;-83
2021/10/09 13:22:51;;;;;;;35.38;15.28;;;;;;;17.44;19.40;101071.14;1772944;80;21007;-82
2021/10/09 13:25:18;;;;;;;30.00;11.63;;;;;;;17.46;19.96;101061.10;1773135;81;20947;-82
2021/10/09 13:27:46;;;;;;;13.30;4.47;;;;;;;17.50;19.92;101067.06;1772809;81;21012;-81
2021/10/09 13:30:13;;;;;;;13.13;4.50;;;;;;;17.59;19.56;101065.69;1749023;81;21078;-78
2021/10/09 13:32:42;;;;;;;6.78;3.00;;;;;;;17.57;18.86;101058.25;1724997;81;20999;-81
2021/10/09 13:35:09;;;;;;;11.28;5.30;;;;;;;17.46;19.49;101065.27;1699119;83;20990;-83
2021/10/09 13:37:53;;;;;;;7.78;3.52;;;;;;;17.32;18.94;101061.84;1699787;83;20994;-81
2021/10/09 13:40:20;;;;;;;23.57;9.30;;;;;;;17.08;19.67;101054.78;1730096;82;21053;-81
2021/10/09 13:42:47;;;;;;;13.72;8.28;;;;;;;17.07;19.95;101057.87;1729629;82;21026;-81
2021/10/09 13:45:14;;;;;;;16.52;8.23;;;;;;;17.13;20.27;101056.59;1729744;83;23199;-80